sensor_id;sensor_type;location;lat;lon;timestamp;P1;durP1;ratioP1;P2;durP2;ratioP2
58468;SDS011;44257;44.804;10.220;2023-10-19T00:01:22;51.80;;;31.65;;
58468;SDS011;44257;44.804;10.220;2023-10-19T00:03:51;46.03;;;30.15;;
58468;SDS011;44257;44.804;10.220;2023-10-19T00:06:21;47.05;;;33.15;;
58468;SDS011;44257;44.804;10.220;2023-10-19T00:08:48;45.22;;;32.08;;
58468;SDS011;44257;44.804;10.220;2023-10-19T00:11:17;46.28;;;31.52;;
58468;SDS011;44257;44.804;10.220;2023-10-19T00:13:51;49.90;;;31.65;;
58468;SDS011;44257;44.804;10.220;2023-10-19T00:16:19;57.05;;;34.50;;
58468;SDS011;44257;44.804;10.220;2023-10-19T00:18:49;48.72;;;31.38;;
58468;SDS011;44257;44.804;10.220;2023-10-19T00:21:15;46.83;;;31.20;;
58468;SDS011;44257;44.804;10.220;2023-10-19T00:23:52;48.63;;;32.83;;
58468;SDS011;44257;44.804;10.220;2023-10-19T00:26:23;47.23;;;32.20;;
58468;SDS011;44257;44.804;10.220;2023-10-19T00:28:56;44.90;;;32.60;;
58468;SDS011;44257;44.804;10.220;2023-10-19T00:31:26;46.42;;;31.35;;
58468;SDS011;44257;44.804;10.220;2023-10-19T00:33:53;53.22;;;34.33;;
58468;SDS011;44257;44.804;10.220;2023-10-19T00:36:23;50.13;;;33.25;;
58468;SDS011;44257;44.804;10.220;2023-10-19T00:38:50;47.25;;;32.28;;
58468;SDS011;44257;44.804;10.220;2023-10-19T00:41:24;51.45;;;32.45;;
58468;SDS011;44257;44.804;10.220;2023-10-19T00:44:00;48.60;;;33.03;;
58468;SDS011;44257;44.804;10.220;2023-10-19T00:46:32;51.63;;;32.42;;
58468;SDS011;44257;44.804;10.220;2023-10-19T00:49:03;53.22;;;33.67;;
58468;SDS011;44257;44.804;10.220;2023-10-19T00:51:41;50.38;;;32.05;;
58468;SDS011;44257;44.804;10.220;2023-10-19T00:57:01;45.72;;;32.40;;
58468;SDS011;44257;44.804;10.220;2023-10-19T00:59:34;43.60;;;31.65;;
58468;SDS011;44257;44.804;10.220;2023-10-19T01:02:28;49.30;;;33.00;;
58468;SDS011;44257;44.804;10.220;2023-10-19T01:04:55;48.95;;;32.65;;
58468;SDS011;44257;44.804;10.220;2023-10-19T01:07:26;47.53;;;33.83;;
58468;SDS011;44257;44.804;10.220;2023-10-19T01:09:57;47.75;;;32.33;;
58468;SDS011;44257;44.804;10.220;2023-10-19T01:12:24;49.72;;;33.05;;
58468;SDS011;44257;44.804;10.220;2023-10-19T01:15:09;47.72;;;33.30;;
58468;SDS011;44257;44.804;10.220;2023-10-19T01:17:46;45.47;;;31.73;;
58468;SDS011;44257;44.804;10.220;2023-10-19T01:20:21;53.28;;;33.72;;
58468;SDS011;44257;44.804;10.220;2023-10-19T01:25:45;55.78;;;35.20;;
58468;SDS011;44257;44.804;10.220;2023-10-19T01:31:20;52.85;;;33.88;;
58468;SDS011;44257;44.804;10.220;2023-10-19T01:33:52;49.50;;;33.53;;
58468;SDS011;44257;44.804;10.220;2023-10-19T01:36:32;49.22;;;34.03;;
58468;SDS011;44257;44.804;10.220;2023-10-19T01:39:07;53.65;;;35.33;;
58468;SDS011;44257;44.804;10.220;2023-10-19T01:41:35;54.10;;;35.10;;
58468;SDS011;44257;44.804;10.220;2023-10-19T01:44:01;52.40;;;34.50;;
58468;SDS011;44257;44.804;10.220;2023-10-19T01:46:32;61.30;;;37.70;;
58468;SDS011;44257;44.804;10.220;2023-10-19T01:49:01;52.88;;;35.10;;
58468;SDS011;44257;44.804;10.220;2023-10-19T01:51:29;56.95;;;36.47;;
58468;SDS011;44257;44.804;10.220;2023-10-19T01:53:58;53.25;;;35.20;;
58468;SDS011;44257;44.804;10.220;2023-10-19T01:56:28;53.55;;;35.50;;
58468;SDS011;44257;44.804;10.220;2023-10-19T01:58:54;52.05;;;34.22;;
58468;SDS011;44257;44.804;10.220;2023-10-19T02:01:20;52.28;;;35.67;;
58468;SDS011;44257;44.804;10.220;2023-10-19T02:03:52;51.65;;;35.15;;
58468;SDS011;44257;44.804;10.220;2023-10-19T02:06:24;50.55;;;34.35;;
58468;SDS011;44257;44.804;10.220;2023-10-19T02:09:05;51.95;;;34.15;;
58468;SDS011;44257;44.804;10.220;2023-10-19T02:11:56;48.17;;;32.95;;
58468;SDS011;44257;44.804;10.220;2023-10-19T02:14:25;46.50;;;31.58;;
58468;SDS011;44257;44.804;10.220;2023-10-19T02:16:54;49.03;;;34.10;;
58468;SDS011;44257;44.804;10.220;2023-10-19T02:19:28;46.40;;;33.30;;
58468;SDS011;44257;44.804;10.220;2023-10-19T02:21:56;45.63;;;31.85;;
58468;SDS011;44257;44.804;10.220;2023-10-19T02:24:23;45.80;;;32.72;;
58468;SDS011;44257;44.804;10.220;2023-10-19T02:26:51;49.55;;;33.00;;
58468;SDS011;44257;44.804;10.220;2023-10-19T02:29:18;46.60;;;33.42;;
58468;SDS011;44257;44.804;10.220;2023-10-19T02:31:44;47.45;;;32.47;;
58468;SDS011;44257;44.804;10.220;2023-10-19T02:34:12;45.58;;;33.47;;
58468;SDS011;44257;44.804;10.220;2023-10-19T02:36:41;46.00;;;32.55;;
58468;SDS011;44257;44.804;10.220;2023-10-19T02:39:08;49.10;;;33.00;;
58468;SDS011;44257;44.804;10.220;2023-10-19T02:41:37;48.17;;;34.13;;
58468;SDS011;44257;44.804;10.220;2023-10-19T02:44:07;47.35;;;33.10;;
58468;SDS011;44257;44.804;10.220;2023-10-19T02:46:51;48.33;;;32.90;;
58468;SDS011;44257;44.804;10.220;2023-10-19T02:49:23;48.03;;;33.55;;
58468;SDS011;44257;44.804;10.220;2023-10-19T02:51:52;48.92;;;33.15;;
58468;SDS011;44257;44.804;10.220;2023-10-19T02:54:22;49.58;;;33.08;;
58468;SDS011;44257;44.804;10.220;2023-10-19T02:56:50;51.17;;;34.15;;
58468;SDS011;44257;44.804;10.220;2023-10-19T02:59:19;50.70;;;32.65;;
58468;SDS011;44257;44.804;10.220;2023-10-19T03:01:53;49.92;;;33.83;;
58468;SDS011;44257;44.804;10.220;2023-10-19T03:04:37;54.55;;;34.10;;
58468;SDS011;44257;44.804;10.220;2023-10-19T03:07:05;49.22;;;32.50;;
58468;SDS011;44257;44.804;10.220;2023-10-19T03:09:31;49.30;;;33.03;;
58468;SDS011;44257;44.804;10.220;2023-10-19T03:12:04;46.40;;;31.67;;
58468;SDS011;44257;44.804;10.220;2023-10-19T03:14:35;48.23;;;33.17;;
58468;SDS011;44257;44.804;10.220;2023-10-19T03:17:02;44.13;;;31.85;;
58468;SDS011;44257;44.804;10.220;2023-10-19T03:19:29;46.35;;;31.10;;
58468;SDS011;44257;44.804;10.220;2023-10-19T03:21:55;47.40;;;33.00;;
58468;SDS011;44257;44.804;10.220;2023-10-19T03:24:25;48.92;;;33.50;;
58468;SDS011;44257;44.804;10.220;2023-10-19T03:27:06;48.13;;;34.20;;
58468;SDS011;44257;44.804;10.220;2023-10-19T03:29:39;50.97;;;34.08;;
58468;SDS011;44257;44.804;10.220;2023-10-19T03:32:05;49.88;;;33.80;;
58468;SDS011;44257;44.804;10.220;2023-10-19T03:34:32;48.67;;;33.88;;
58468;SDS011;44257;44.804;10.220;2023-10-19T03:36:59;51.05;;;33.88;;
58468;SDS011;44257;44.804;10.220;2023-10-19T03:39:32;48.97;;;34.15;;
58468;SDS011;44257;44.804;10.220;2023-10-19T03:42:03;50.33;;;33.70;;
58468;SDS011;44257;44.804;10.220;2023-10-19T03:44:39;50.58;;;33.35;;
58468;SDS011;44257;44.804;10.220;2023-10-19T03:47:23;51.22;;;34.92;;
58468;SDS011;44257;44.804;10.220;2023-10-19T03:50:00;53.22;;;34.70;;
58468;SDS011;44257;44.804;10.220;2023-10-19T03:52:31;52.30;;;35.00;;
58468;SDS011;44257;44.804;10.220;2023-10-19T03:55:03;54.00;;;35.55;;
58468;SDS011;44257;44.804;10.220;2023-10-19T03:57:36;54.03;;;37.15;;
58468;SDS011;44257;44.804;10.220;2023-10-19T04:00:07;56.15;;;37.80;;
58468;SDS011;44257;44.804;10.220;2023-10-19T04:02:41;58.58;;;38.05;;
58468;SDS011;44257;44.804;10.220;2023-10-19T04:05:08;54.60;;;37.22;;
58468;SDS011;44257;44.804;10.220;2023-10-19T04:07:40;54.42;;;36.35;;
58468;SDS011;44257;44.804;10.220;2023-10-19T04:10:07;59.45;;;37.92;;
58468;SDS011;44257;44.804;10.220;2023-10-19T04:12:34;65.28;;;41.05;;
58468;SDS011;44257;44.804;10.220;2023-10-19T04:15:02;65.72;;;42.28;;
58468;SDS011;44257;44.804;10.220;2023-10-19T04:17:41;58.83;;;38.42;;
58468;SDS011;44257;44.804;10.220;2023-10-19T04:20:07;64.80;;;41.95;;
58468;SDS011;44257;44.804;10.220;2023-10-19T04:25:16;56.80;;;38.20;;
58468;SDS011;44257;44.804;10.220;2023-10-19T04:27:50;61.53;;;41.05;;
58468;SDS011;44257;44.804;10.220;2023-10-19T04:30:17;60.60;;;40.45;;
58468;SDS011;44257;44.804;10.220;2023-10-19T04:32:52;60.42;;;40.00;;
58468;SDS011;44257;44.804;10.220;2023-10-19T04:35:18;59.47;;;38.97;;
58468;SDS011;44257;44.804;10.220;2023-10-19T04:37:48;56.72;;;37.70;;
58468;SDS011;44257;44.804;10.220;2023-10-19T04:40:16;58.63;;;39.35;;
58468;SDS011;44257;44.804;10.220;2023-10-19T04:42:42;57.05;;;37.90;;
58468;SDS011;44257;44.804;10.220;2023-10-19T04:45:07;61.33;;;39.85;;
58468;SDS011;44257;44.804;10.220;2023-10-19T04:47:34;59.08;;;39.22;;
58468;SDS011;44257;44.804;10.220;2023-10-19T04:50:03;81.07;;;51.60;;
58468;SDS011;44257;44.804;10.220;2023-10-19T04:52:29;66.10;;;42.40;;
58468;SDS011;44257;44.804;10.220;2023-10-19T04:54:55;58.13;;;37.72;;
58468;SDS011;44257;44.804;10.220;2023-10-19T04:57:22;110.28;;;61.67;;
58468;SDS011;44257;44.804;10.220;2023-10-19T04:59:48;99.40;;;61.13;;
58468;SDS011;44257;44.804;10.220;2023-10-19T05:02:13;60.28;;;39.00;;
58468;SDS011;44257;44.804;10.220;2023-10-19T05:04:39;58.35;;;37.65;;
58468;SDS011;44257;44.804;10.220;2023-10-19T05:07:09;75.18;;;44.83;;
58468;SDS011;44257;44.804;10.220;2023-10-19T05:09:37;66.32;;;42.65;;
58468;SDS011;44257;44.804;10.220;2023-10-19T05:12:06;63.85;;;38.55;;
58468;SDS011;44257;44.804;10.220;2023-10-19T05:14:35;61.92;;;40.33;;
58468;SDS011;44257;44.804;10.220;2023-10-19T05:17:01;57.80;;;38.28;;
58468;SDS011;44257;44.804;10.220;2023-10-19T05:19:34;78.63;;;52.40;;
58468;SDS011;44257;44.804;10.220;2023-10-19T05:22:01;64.78;;;42.78;;
58468;SDS011;44257;44.804;10.220;2023-10-19T05:24:28;66.20;;;42.58;;
58468;SDS011;44257;44.804;10.220;2023-10-19T05:26:55;60.40;;;39.75;;
58468;SDS011;44257;44.804;10.220;2023-10-19T05:29:21;61.88;;;40.50;;
58468;SDS011;44257;44.804;10.220;2023-10-19T05:31:50;61.47;;;39.50;;
58468;SDS011;44257;44.804;10.220;2023-10-19T05:34:21;62.53;;;39.08;;
58468;SDS011;44257;44.804;10.220;2023-10-19T05:36:49;65.00;;;40.20;;
58468;SDS011;44257;44.804;10.220;2023-10-19T05:39:17;58.33;;;38.13;;
58468;SDS011;44257;44.804;10.220;2023-10-19T05:41:43;61.15;;;39.63;;
58468;SDS011;44257;44.804;10.220;2023-10-19T05:44:09;63.97;;;42.22;;
58468;SDS011;44257;44.804;10.220;2023-10-19T05:46:35;61.25;;;41.30;;
58468;SDS011;44257;44.804;10.220;2023-10-19T05:49:01;61.50;;;39.78;;
58468;SDS011;44257;44.804;10.220;2023-10-19T05:51:29;61.53;;;39.80;;
58468;SDS011;44257;44.804;10.220;2023-10-19T05:53:56;63.50;;;39.38;;
58468;SDS011;44257;44.804;10.220;2023-10-19T05:56:27;67.70;;;41.70;;
58468;SDS011;44257;44.804;10.220;2023-10-19T05:58:55;69.50;;;42.13;;
58468;SDS011;44257;44.804;10.220;2023-10-19T06:01:21;66.35;;;41.30;;
58468;SDS011;44257;44.804;10.220;2023-10-19T06:03:48;72.50;;;42.45;;
58468;SDS011;44257;44.804;10.220;2023-10-19T06:06:14;67.28;;;41.45;;
58468;SDS011;44257;44.804;10.220;2023-10-19T06:08:40;72.07;;;41.45;;
58468;SDS011;44257;44.804;10.220;2023-10-19T06:11:06;67.65;;;43.08;;
58468;SDS011;44257;44.804;10.220;2023-10-19T06:13:32;67.88;;;42.80;;
58468;SDS011;44257;44.804;10.220;2023-10-19T06:15:58;62.80;;;40.17;;
58468;SDS011;44257;44.804;10.220;2023-10-19T06:18:24;61.15;;;39.83;;
58468;SDS011;44257;44.804;10.220;2023-10-19T06:20:50;67.93;;;40.58;;
58468;SDS011;44257;44.804;10.220;2023-10-19T06:23:17;60.17;;;39.55;;
58468;SDS011;44257;44.804;10.220;2023-10-19T06:25:43;58.83;;;39.38;;
58468;SDS011;44257;44.804;10.220;2023-10-19T06:28:09;60.50;;;38.95;;
58468;SDS011;44257;44.804;10.220;2023-10-19T06:30:36;62.90;;;39.67;;
58468;SDS011;44257;44.804;10.220;2023-10-19T06:33:02;56.83;;;39.17;;
58468;SDS011;44257;44.804;10.220;2023-10-19T06:35:29;59.83;;;38.70;;
58468;SDS011;44257;44.804;10.220;2023-10-19T06:37:57;57.10;;;38.70;;
58468;SDS011;44257;44.804;10.220;2023-10-19T06:40:27;62.03;;;38.60;;
58468;SDS011;44257;44.804;10.220;2023-10-19T06:42:56;55.78;;;36.78;;
58468;SDS011;44257;44.804;10.220;2023-10-19T06:45:23;55.83;;;35.95;;
58468;SDS011;44257;44.804;10.220;2023-10-19T06:47:50;53.50;;;34.40;;
58468;SDS011;44257;44.804;10.220;2023-10-19T06:50:19;48.90;;;33.38;;
58468;SDS011;44257;44.804;10.220;2023-10-19T06:52:46;54.03;;;35.78;;
58468;SDS011;44257;44.804;10.220;2023-10-19T06:55:13;54.22;;;36.60;;
58468;SDS011;44257;44.804;10.220;2023-10-19T06:57:42;56.70;;;36.53;;
58468;SDS011;44257;44.804;10.220;2023-10-19T07:00:12;53.78;;;36.20;;
58468;SDS011;44257;44.804;10.220;2023-10-19T07:02:46;54.80;;;37.03;;
58468;SDS011;44257;44.804;10.220;2023-10-19T07:05:13;50.20;;;34.70;;
58468;SDS011;44257;44.804;10.220;2023-10-19T07:07:43;51.72;;;35.03;;
58468;SDS011;44257;44.804;10.220;2023-10-19T07:10:10;48.92;;;33.75;;
58468;SDS011;44257;44.804;10.220;2023-10-19T07:12:38;54.85;;;35.22;;
58468;SDS011;44257;44.804;10.220;2023-10-19T07:15:05;53.28;;;35.58;;
58468;SDS011;44257;44.804;10.220;2023-10-19T07:17:39;48.28;;;33.40;;
58468;SDS011;44257;44.804;10.220;2023-10-19T07:20:09;46.13;;;33.20;;
58468;SDS011;44257;44.804;10.220;2023-10-19T07:22:59;44.20;;;31.95;;
58468;SDS011;44257;44.804;10.220;2023-10-19T07:25:30;41.83;;;31.17;;
58468;SDS011;44257;44.804;10.220;2023-10-19T07:27:56;41.13;;;30.70;;
58468;SDS011;44257;44.804;10.220;2023-10-19T07:30:24;40.40;;;29.85;;
58468;SDS011;44257;44.804;10.220;2023-10-19T07:32:53;39.33;;;29.15;;
58468;SDS011;44257;44.804;10.220;2023-10-19T07:35:25;41.53;;;29.15;;
58468;SDS011;44257;44.804;10.220;2023-10-19T07:37:56;46.00;;;31.00;;
58468;SDS011;44257;44.804;10.220;2023-10-19T07:40:22;42.10;;;31.08;;
58468;SDS011;44257;44.804;10.220;2023-10-19T07:42:49;40.63;;;29.85;;
58468;SDS011;44257;44.804;10.220;2023-10-19T07:45:17;37.75;;;28.65;;
58468;SDS011;44257;44.804;10.220;2023-10-19T07:47:43;38.53;;;28.77;;
58468;SDS011;44257;44.804;10.220;2023-10-19T07:50:11;37.67;;;28.70;;
58468;SDS011;44257;44.804;10.220;2023-10-19T07:52:44;33.72;;;25.58;;
58468;SDS011;44257;44.804;10.220;2023-10-19T07:55:19;33.67;;;26.25;;
58468;SDS011;44257;44.804;10.220;2023-10-19T07:57:51;30.75;;;24.02;;
58468;SDS011;44257;44.804;10.220;2023-10-19T08:00:20;36.20;;;27.52;;
58468;SDS011;44257;44.804;10.220;2023-10-19T08:02:46;32.67;;;25.00;;
58468;SDS011;44257;44.804;10.220;2023-10-19T08:05:13;31.88;;;25.35;;
58468;SDS011;44257;44.804;10.220;2023-10-19T08:07:39;34.42;;;25.08;;
58468;SDS011;44257;44.804;10.220;2023-10-19T08:10:08;34.22;;;26.25;;
58468;SDS011;44257;44.804;10.220;2023-10-19T08:12:36;34.75;;;24.80;;
58468;SDS011;44257;44.804;10.220;2023-10-19T08:15:02;30.67;;;24.70;;
58468;SDS011;44257;44.804;10.220;2023-10-19T08:17:29;34.08;;;24.88;;
58468;SDS011;44257;44.804;10.220;2023-10-19T08:19:55;29.23;;;23.33;;
58468;SDS011;44257;44.804;10.220;2023-10-19T08:22:22;28.70;;;23.55;;
58468;SDS011;44257;44.804;10.220;2023-10-19T08:24:49;30.65;;;24.77;;
58468;SDS011;44257;44.804;10.220;2023-10-19T08:27:15;30.42;;;24.20;;
58468;SDS011;44257;44.804;10.220;2023-10-19T08:29:42;30.75;;;24.48;;
58468;SDS011;44257;44.804;10.220;2023-10-19T08:32:08;31.48;;;24.10;;
58468;SDS011;44257;44.804;10.220;2023-10-19T08:34:35;30.00;;;23.85;;
58468;SDS011;44257;44.804;10.220;2023-10-19T08:37:02;28.77;;;22.98;;
58468;SDS011;44257;44.804;10.220;2023-10-19T08:39:29;30.55;;;23.60;;
58468;SDS011;44257;44.804;10.220;2023-10-19T08:42:04;30.17;;;24.15;;
58468;SDS011;44257;44.804;10.220;2023-10-19T08:44:34;32.75;;;24.65;;
58468;SDS011;44257;44.804;10.220;2023-10-19T08:47:00;33.95;;;24.95;;
58468;SDS011;44257;44.804;10.220;2023-10-19T08:49:27;32.65;;;26.25;;
58468;SDS011;44257;44.804;10.220;2023-10-19T08:51:53;36.05;;;25.98;;
58468;SDS011;44257;44.804;10.220;2023-10-19T08:54:20;36.95;;;27.02;;
58468;SDS011;44257;44.804;10.220;2023-10-19T08:56:46;34.70;;;26.27;;
58468;SDS011;44257;44.804;10.220;2023-10-19T08:59:15;34.15;;;26.83;;
58468;SDS011;44257;44.804;10.220;2023-10-19T09:01:42;34.20;;;26.38;;
58468;SDS011;44257;44.804;10.220;2023-10-19T09:04:11;33.78;;;26.17;;
58468;SDS011;44257;44.804;10.220;2023-10-19T09:06:38;32.58;;;25.45;;
58468;SDS011;44257;44.804;10.220;2023-10-19T09:09:07;35.10;;;26.02;;
58468;SDS011;44257;44.804;10.220;2023-10-19T09:11:34;33.05;;;24.45;;
58468;SDS011;44257;44.804;10.220;2023-10-19T09:14:00;32.47;;;26.17;;
58468;SDS011;44257;44.804;10.220;2023-10-19T09:16:29;33.40;;;25.55;;
58468;SDS011;44257;44.804;10.220;2023-10-19T09:18:56;30.45;;;24.23;;
58468;SDS011;44257;44.804;10.220;2023-10-19T09:21:22;31.20;;;24.83;;
58468;SDS011;44257;44.804;10.220;2023-10-19T09:23:51;31.70;;;24.40;;
58468;SDS011;44257;44.804;10.220;2023-10-19T09:26:18;31.10;;;24.63;;
58468;SDS011;44257;44.804;10.220;2023-10-19T09:28:48;29.40;;;22.30;;
58468;SDS011;44257;44.804;10.220;2023-10-19T09:31:14;27.73;;;20.77;;
58468;SDS011;44257;44.804;10.220;2023-10-19T09:33:42;27.75;;;21.55;;
58468;SDS011;44257;44.804;10.220;2023-10-19T09:36:09;27.70;;;22.42;;
58468;SDS011;44257;44.804;10.220;2023-10-19T09:41:13;30.20;;;23.00;;
58468;SDS011;44257;44.804;10.220;2023-10-19T09:43:44;32.75;;;23.73;;
58468;SDS011;44257;44.804;10.220;2023-10-19T09:46:11;30.60;;;22.33;;
58468;SDS011;44257;44.804;10.220;2023-10-19T09:48:50;28.30;;;21.63;;
58468;SDS011;44257;44.804;10.220;2023-10-19T09:51:17;30.75;;;23.05;;
58468;SDS011;44257;44.804;10.220;2023-10-19T09:53:47;28.73;;;22.55;;
58468;SDS011;44257;44.804;10.220;2023-10-19T09:56:28;30.30;;;22.90;;
58468;SDS011;44257;44.804;10.220;2023-10-19T09:59:05;26.98;;;21.25;;
58468;SDS011;44257;44.804;10.220;2023-10-19T10:04:47;30.05;;;22.27;;
58468;SDS011;44257;44.804;10.220;2023-10-19T10:07:14;30.70;;;20.27;;
58468;SDS011;44257;44.804;10.220;2023-10-19T10:09:43;27.52;;;21.60;;
58468;SDS011;44257;44.804;10.220;2023-10-19T10:12:19;28.23;;;20.77;;
58468;SDS011;44257;44.804;10.220;2023-10-19T10:14:59;28.50;;;20.20;;
58468;SDS011;44257;44.804;10.220;2023-10-19T10:17:28;29.08;;;22.08;;
58468;SDS011;44257;44.804;10.220;2023-10-19T10:22:44;29.25;;;22.75;;
58468;SDS011;44257;44.804;10.220;2023-10-19T10:25:25;29.85;;;22.42;;
58468;SDS011;44257;44.804;10.220;2023-10-19T10:27:55;28.80;;;22.38;;
58468;SDS011;44257;44.804;10.220;2023-10-19T10:30:21;27.70;;;21.23;;
58468;SDS011;44257;44.804;10.220;2023-10-19T10:32:50;27.33;;;21.48;;
58468;SDS011;44257;44.804;10.220;2023-10-19T10:38:03;31.13;;;21.73;;
58468;SDS011;44257;44.804;10.220;2023-10-19T10:40:47;28.65;;;22.73;;
58468;SDS011;44257;44.804;10.220;2023-10-19T10:43:14;31.02;;;23.67;;
58468;SDS011;44257;44.804;10.220;2023-10-19T10:45:43;28.17;;;22.25;;
58468;SDS011;44257;44.804;10.220;2023-10-19T10:50:44;29.67;;;22.98;;
58468;SDS011;44257;44.804;10.220;2023-10-19T10:53:12;26.42;;;20.17;;
58468;SDS011;44257;44.804;10.220;2023-10-19T10:55:42;26.27;;;20.45;;
58468;SDS011;44257;44.804;10.220;2023-10-19T10:58:08;26.13;;;21.30;;
58468;SDS011;44257;44.804;10.220;2023-10-19T11:00:34;24.73;;;19.13;;
58468;SDS011;44257;44.804;10.220;2023-10-19T11:03:07;24.50;;;19.08;;
58468;SDS011;44257;44.804;10.220;2023-10-19T11:05:35;24.83;;;18.42;;
58468;SDS011;44257;44.804;10.220;2023-10-19T11:08:08;26.60;;;19.23;;
58468;SDS011;44257;44.804;10.220;2023-10-19T11:10:39;23.83;;;19.00;;
58468;SDS011;44257;44.804;10.220;2023-10-19T11:13:11;25.40;;;18.48;;
58468;SDS011;44257;44.804;10.220;2023-10-19T11:15:38;24.40;;;18.65;;
58468;SDS011;44257;44.804;10.220;2023-10-19T11:18:27;24.80;;;18.88;;
58468;SDS011;44257;44.804;10.220;2023-10-19T11:20:54;24.60;;;19.30;;
58468;SDS011;44257;44.804;10.220;2023-10-19T11:23:33;22.77;;;17.75;;
58468;SDS011;44257;44.804;10.220;2023-10-19T11:26:04;23.35;;;18.40;;
58468;SDS011;44257;44.804;10.220;2023-10-19T11:28:31;27.52;;;20.42;;
58468;SDS011;44257;44.804;10.220;2023-10-19T11:34:03;24.25;;;18.27;;
58468;SDS011;44257;44.804;10.220;2023-10-19T11:36:29;24.33;;;18.77;;
58468;SDS011;44257;44.804;10.220;2023-10-19T11:38:55;22.15;;;17.65;;
58468;SDS011;44257;44.804;10.220;2023-10-19T11:41:21;23.90;;;17.95;;
58468;SDS011;44257;44.804;10.220;2023-10-19T11:43:48;21.65;;;17.50;;
58468;SDS011;44257;44.804;10.220;2023-10-19T11:46:15;23.90;;;18.77;;
58468;SDS011;44257;44.804;10.220;2023-10-19T11:48:51;26.38;;;19.35;;
58468;SDS011;44257;44.804;10.220;2023-10-19T11:51:17;23.38;;;18.63;;
58468;SDS011;44257;44.804;10.220;2023-10-19T11:53:43;22.42;;;17.23;;
58468;SDS011;44257;44.804;10.220;2023-10-19T11:56:11;21.77;;;17.23;;
58468;SDS011;44257;44.804;10.220;2023-10-19T11:58:38;23.25;;;17.25;;
58468;SDS011;44257;44.804;10.220;2023-10-19T12:01:09;20.55;;;16.75;;
58468;SDS011;44257;44.804;10.220;2023-10-19T12:03:39;23.13;;;18.40;;
58468;SDS011;44257;44.804;10.220;2023-10-19T12:06:09;21.52;;;17.92;;
58468;SDS011;44257;44.804;10.220;2023-10-19T12:08:36;23.42;;;16.90;;
58468;SDS011;44257;44.804;10.220;2023-10-19T12:11:03;20.00;;;16.52;;
58468;SDS011;44257;44.804;10.220;2023-10-19T12:13:32;21.98;;;17.80;;
58468;SDS011;44257;44.804;10.220;2023-10-19T12:15:58;20.95;;;16.48;;
58468;SDS011;44257;44.804;10.220;2023-10-19T12:18:24;21.63;;;17.05;;
58468;SDS011;44257;44.804;10.220;2023-10-19T12:20:54;21.15;;;17.02;;
58468;SDS011;44257;44.804;10.220;2023-10-19T12:23:25;21.63;;;18.00;;
58468;SDS011;44257;44.804;10.220;2023-10-19T12:25:51;21.85;;;17.50;;
58468;SDS011;44257;44.804;10.220;2023-10-19T12:28:17;23.35;;;18.13;;
58468;SDS011;44257;44.804;10.220;2023-10-19T12:30:44;21.17;;;17.52;;
58468;SDS011;44257;44.804;10.220;2023-10-19T12:33:10;20.70;;;17.25;;
58468;SDS011;44257;44.804;10.220;2023-10-19T12:35:42;24.27;;;18.67;;
58468;SDS011;44257;44.804;10.220;2023-10-19T12:38:19;25.92;;;19.10;;
58468;SDS011;44257;44.804;10.220;2023-10-19T12:40:46;26.50;;;20.02;;
58468;SDS011;44257;44.804;10.220;2023-10-19T12:43:16;26.50;;;19.85;;
58468;SDS011;44257;44.804;10.220;2023-10-19T12:45:47;27.23;;;19.60;;
58468;SDS011;44257;44.804;10.220;2023-10-19T12:48:21;26.58;;;20.20;;
58468;SDS011;44257;44.804;10.220;2023-10-19T12:50:47;26.73;;;19.83;;
58468;SDS011;44257;44.804;10.220;2023-10-19T12:53:12;26.58;;;21.33;;
58468;SDS011;44257;44.804;10.220;2023-10-19T12:55:39;26.60;;;20.30;;
58468;SDS011;44257;44.804;10.220;2023-10-19T12:58:05;24.25;;;19.27;;
58468;SDS011;44257;44.804;10.220;2023-10-19T13:00:40;25.98;;;19.67;;
58468;SDS011;44257;44.804;10.220;2023-10-19T13:03:09;26.40;;;19.63;;
58468;SDS011;44257;44.804;10.220;2023-10-19T13:05:39;24.95;;;19.17;;
58468;SDS011;44257;44.804;10.220;2023-10-19T13:08:06;26.45;;;19.00;;
58468;SDS011;44257;44.804;10.220;2023-10-19T13:10:33;25.88;;;19.10;;
58468;SDS011;44257;44.804;10.220;2023-10-19T13:13:02;25.50;;;18.15;;
58468;SDS011;44257;44.804;10.220;2023-10-19T13:15:32;28.75;;;20.60;;
58468;SDS011;44257;44.804;10.220;2023-10-19T13:18:03;29.67;;;19.95;;
58468;SDS011;44257;44.804;10.220;2023-10-19T13:20:31;25.52;;;19.60;;
58468;SDS011;44257;44.804;10.220;2023-10-19T13:23:06;29.23;;;20.52;;
58468;SDS011;44257;44.804;10.220;2023-10-19T13:25:38;30.42;;;23.15;;
58468;SDS011;44257;44.804;10.220;2023-10-19T13:28:10;28.63;;;21.55;;
58468;SDS011;44257;44.804;10.220;2023-10-19T13:30:56;33.15;;;22.88;;
58468;SDS011;44257;44.804;10.220;2023-10-19T13:33:22;31.42;;;23.15;;
58468;SDS011;44257;44.804;10.220;2023-10-19T13:35:49;30.73;;;23.00;;
58468;SDS011;44257;44.804;10.220;2023-10-19T13:38:16;35.63;;;20.60;;
58468;SDS011;44257;44.804;10.220;2023-10-19T13:40:45;28.25;;;20.42;;
58468;SDS011;44257;44.804;10.220;2023-10-19T13:43:11;28.58;;;20.25;;
58468;SDS011;44257;44.804;10.220;2023-10-19T13:45:42;28.40;;;21.52;;
58468;SDS011;44257;44.804;10.220;2023-10-19T13:48:11;26.38;;;20.50;;
58468;SDS011;44257;44.804;10.220;2023-10-19T13:50:48;25.40;;;19.73;;
58468;SDS011;44257;44.804;10.220;2023-10-19T13:53:14;24.23;;;20.17;;
58468;SDS011;44257;44.804;10.220;2023-10-19T13:55:41;25.25;;;19.85;;
58468;SDS011;44257;44.804;10.220;2023-10-19T13:58:08;27.23;;;20.73;;
58468;SDS011;44257;44.804;10.220;2023-10-19T14:00:34;23.10;;;19.45;;
58468;SDS011;44257;44.804;10.220;2023-10-19T14:03:06;23.90;;;19.42;;
58468;SDS011;44257;44.804;10.220;2023-10-19T14:05:36;23.75;;;20.23;;
58468;SDS011;44257;44.804;10.220;2023-10-19T14:08:13;24.83;;;20.00;;
58468;SDS011;44257;44.804;10.220;2023-10-19T14:10:39;26.05;;;21.10;;
58468;SDS011;44257;44.804;10.220;2023-10-19T14:13:08;24.98;;;21.17;;
58468;SDS011;44257;44.804;10.220;2023-10-19T14:15:37;26.00;;;21.48;;
58468;SDS011;44257;44.804;10.220;2023-10-19T14:18:03;27.02;;;20.77;;
58468;SDS011;44257;44.804;10.220;2023-10-19T14:20:30;26.40;;;21.23;;
58468;SDS011;44257;44.804;10.220;2023-10-19T14:22:59;26.73;;;21.98;;
58468;SDS011;44257;44.804;10.220;2023-10-19T14:25:25;28.38;;;22.92;;
58468;SDS011;44257;44.804;10.220;2023-10-19T14:27:52;27.98;;;23.05;;
58468;SDS011;44257;44.804;10.220;2023-10-19T14:30:24;25.55;;;22.35;;
58468;SDS011;44257;44.804;10.220;2023-10-19T14:32:53;24.48;;;20.17;;
58468;SDS011;44257;44.804;10.220;2023-10-19T14:35:20;26.70;;;22.52;;
58468;SDS011;44257;44.804;10.220;2023-10-19T14:37:48;26.65;;;22.73;;
58468;SDS011;44257;44.804;10.220;2023-10-19T14:40:23;25.52;;;20.42;;
58468;SDS011;44257;44.804;10.220;2023-10-19T14:42:50;25.63;;;21.80;;
58468;SDS011;44257;44.804;10.220;2023-10-19T14:45:20;23.60;;;20.17;;
58468;SDS011;44257;44.804;10.220;2023-10-19T14:47:54;24.05;;;20.92;;
58468;SDS011;44257;44.804;10.220;2023-10-19T14:50:21;27.67;;;21.88;;